Terminal Aerodrome Forecast
Issued by NWS

Home | Current Version | Previous Version | Text Only | Print | Product List | Glossary On
Versions: 1 2 3 4 5 6 7 8 9 10 11 12 13 14 15 16 17 18 19 20 21 22 23 24 25 26 27
000
FTUS43 KDLH 282336
TAFBRD
TAF
KBRD 282336Z 2900/2924 21013G21KT P6SM FEW040 BKN080
     FM290500 24010KT P6SM SKC WS010/26045KT
     FM291400 26018G35KT P6SM SCT100=

USA.gov is the U.S. government's official web portal to all federal, state and local government web resources and services.